Time;durP1;ratioP1;P1;durP2;ratioP2;P2;SDS_P1;SDS_P2;PMS_P1;PMS_P2;Temp;Humidity;BMP_temperature;BMP_pressure;BME280_temperature;BME280_humidity;BME280_pressure;Samples;Min_cycle;Max_cycle;Signal;HPM_P1;HPM_P2
2022/02/08 00:01:59;;;;;;;7.97;3.20;;;;;;;;;;5052151;28;20045;-70
2022/02/08 00:04:25;;;;;;;8.93;3.72;;;;;;;;;;5053050;28;20029;-70
2022/02/08 00:06:51;;;;;;;11.32;3.50;;;;;;;;;;5053302;28;20490;-71
2022/02/08 00:09:19;;;;;;;12.60;3.88;;;;;;;;;;5053197;28;20111;-70
2022/02/08 00:11:44;;;;;;;9.98;3.65;;;;;;;;;;5051999;28;20021;-70
2022/02/08 00:14:10;;;;;;;10.77;3.95;;;;;;;;;;5053045;28;20044;-70
2022/02/08 00:16:35;;;;;;;7.93;3.33;;;;;;;;;;5052561;28;20095;-70
2022/02/08 00:19:01;;;;;;;8.68;2.97;;;;;;;;;;5052990;28;20487;-70
2022/02/08 00:21:28;;;;;;;9.70;3.03;;;;;;;;;;5052825;28;20480;-70
2022/02/08 00:23:54;;;;;;;8.52;3.08;;;;;;;;;;5051324;28;20108;-71
2022/02/08 00:26:19;;;;;;;6.50;2.55;;;;;;;;;;5052106;28;20510;-70
2022/02/08 00:28:45;;;;;;;6.97;2.78;;;;;;;;;;5052927;28;20467;-70
2022/02/08 00:31:11;;;;;;;6.15;2.80;;;;;;;;;;5051776;28;20112;-71
2022/02/08 00:33:37;;;;;;;12.27;3.22;;;;;;;;;;5051910;28;20111;-71
2022/02/08 00:36:02;;;;;;;8.52;3.17;;;;;;;;;;5068533;28;20455;-71
2022/02/08 00:38:28;;;;;;;10.15;3.17;;;;;;;;;;5051346;28;20070;-71
2022/02/08 00:40:58;;;;;;;8.15;2.60;;;;;;;;;;5051610;28;20035;-71
2022/02/08 00:43:28;;;;;;;6.68;2.85;;;;;;;;;;5068352;28;20063;-71
2022/02/08 00:46:08;;;;;;;8.00;2.38;;;;;;;;;;5053690;28;20029;-70
2022/02/08 00:48:42;;;;;;;6.95;2.60;;;;;;;;;;5072140;28;20037;-70
2022/02/08 00:51:08;;;;;;;5.20;2.47;;;;;;;;;;5055399;28;20025;-71
2022/02/08 00:53:34;;;;;;;8.55;3.03;;;;;;;;;;5056450;28;20025;-71
2022/02/08 00:56:00;;;;;;;7.20;2.42;;;;;;;;;;5071862;28;20442;-70
2022/02/08 00:58:26;;;;;;;6.07;2.72;;;;;;;;;;5055158;28;20017;-74
2022/02/08 01:00:56;;;;;;;5.50;2.40;;;;;;;;;;5071546;28;20572;-72
2022/02/08 01:03:22;;;;;;;5.78;2.10;;;;;;;;;;5071482;28;20063;-72
2022/02/08 01:05:53;;;;;;;7.30;2.53;;;;;;;;;;5055160;28;20040;-70
2022/02/08 01:08:19;;;;;;;8.30;2.53;;;;;;;;;;5055193;28;20127;-70
2022/02/08 01:10:46;;;;;;;7.15;2.33;;;;;;;;;;5054762;28;20402;-70
2022/02/08 01:13:15;;;;;;;4.82;2.15;;;;;;;;;;5054889;28;20036;-71
2022/02/08 01:15:40;;;;;;;9.18;2.63;;;;;;;;;;5053734;28;20045;-71
2022/02/08 01:18:06;;;;;;;6.63;2.15;;;;;;;;;;5054292;28;20025;-71
2022/02/08 01:20:36;;;;;;;6.93;2.53;;;;;;;;;;5071107;28;20387;-70
2022/02/08 01:23:09;;;;;;;8.55;2.63;;;;;;;;;;5071428;28;20033;-69
2022/02/08 01:25:44;;;;;;;5.95;2.55;;;;;;;;;;5054653;28;20059;-70
2022/02/08 01:28:40;;;;;;;4.88;2.00;;;;;;;;;;5071522;28;20082;-71
2022/02/08 01:31:06;;;;;;;5.18;2.40;;;;;;;;;;5055311;28;20049;-70
2022/02/08 01:33:51;;;;;;;8.18;2.58;;;;;;;;;;5054022;28;20124;-71
2022/02/08 01:39:13;;;;;;;9.68;3.10;;;;;;;;;;5053925;28;20029;-71
2022/02/08 01:44:18;;;;;;;6.53;2.90;;;;;;;;;;5053875;28;20044;-71
2022/02/08 01:46:58;;;;;;;5.07;2.28;;;;;;;;;;5070371;28;20029;-71
2022/02/08 01:51:50;;;;;;;5.57;2.42;;;;;;;;;;5054110;28;20017;-71
2022/02/08 01:54:17;;;;;;;8.07;2.55;;;;;;;;;;5053822;28;20086;-71
2022/02/08 01:56:43;;;;;;;6.85;3.10;;;;;;;;;;5069959;28;20047;-70
2022/02/08 01:59:09;;;;;;;7.28;2.80;;;;;;;;;;5053752;28;20534;-70
2022/02/08 02:01:38;;;;;;;7.97;2.35;;;;;;;;;;5070255;28;20025;-70
2022/02/08 02:04:03;;;;;;;7.43;3.03;;;;;;;;;;5055062;28;20013;-71
2022/02/08 02:06:29;;;;;;;6.10;2.42;;;;;;;;;;5053761;28;20400;-71
2022/02/08 02:08:57;;;;;;;6.65;1.98;;;;;;;;;;5054696;28;20021;-71
2022/02/08 02:11:23;;;;;;;7.80;2.47;;;;;;;;;;5070105;28;20039;-71
2022/02/08 02:13:50;;;;;;;7.13;2.47;;;;;;;;;;5054498;28;20460;-71
2022/02/08 02:16:31;;;;;;;5.15;2.20;;;;;;;;;;5069430;28;20064;-70
2022/02/08 02:18:57;;;;;;;7.50;2.92;;;;;;;;;;5053704;28;20036;-71
2022/02/08 02:21:29;;;;;;;9.93;3.30;;;;;;;;;;5053262;28;20017;-70
2022/02/08 02:23:55;;;;;;;8.80;2.85;;;;;;;;;;5053166;28;20348;-70
2022/02/08 02:26:23;;;;;;;5.90;2.88;;;;;;;;;;5053412;28;20495;-71
2022/02/08 02:28:50;;;;;;;7.88;3.00;;;;;;;;;;5054632;28;20078;-70
2022/02/08 02:31:18;;;;;;;6.25;2.42;;;;;;;;;;5053393;28;20398;-70
2022/02/08 02:33:44;;;;;;;6.10;2.80;;;;;;;;;;5054447;28;20434;-70
2022/02/08 02:36:11;;;;;;;6.93;2.63;;;;;;;;;;5053442;28;20017;-71
2022/02/08 02:38:37;;;;;;;7.18;2.65;;;;;;;;;;5052712;28;20032;-71
2022/02/08 02:41:03;;;;;;;6.35;2.42;;;;;;;;;;5052775;28;20132;-71
2022/02/08 02:43:29;;;;;;;7.70;2.67;;;;;;;;;;5052928;28;20020;-72
2022/02/08 02:46:02;;;;;;;5.13;2.33;;;;;;;;;;5053019;28;20052;-72
2022/02/08 02:48:29;;;;;;;8.07;2.50;;;;;;;;;;5054561;28;20555;-72
2022/02/08 02:50:57;;;;;;;5.07;2.45;;;;;;;;;;5052858;28;20025;-72
2022/02/08 02:53:30;;;;;;;7.65;2.33;;;;;;;;;;5052929;28;20486;-73
2022/02/08 02:55:57;;;;;;;6.57;2.55;;;;;;;;;;5052974;28;20368;-73
2022/02/08 02:58:28;;;;;;;9.15;2.45;;;;;;;;;;5052656;28;20027;-73
2022/02/08 03:17:39;;;;;;;;;;;;;;;;;;5052815;28;20043;-71
2022/02/08 03:20:06;;;;;;;5.03;2.40;;;;;;;;;;5052310;28;19913;-71
2022/02/08 03:22:32;;;;;;;4.25;2.33;;;;;;;;;;5053587;28;20024;-71
2022/02/08 03:24:58;;;;;;;5.78;2.30;;;;;;;;;;5052390;28;20052;-71
2022/02/08 03:27:26;;;;;;;5.50;1.77;;;;;;;;;;5069266;28;20021;-73
2022/02/08 03:29:52;;;;;;;6.55;2.15;;;;;;;;;;5052556;28;20010;-71
2022/02/08 03:32:20;;;;;;;7.32;2.08;;;;;;;;;;5052346;28;20090;-71
2022/02/08 03:34:48;;;;;;;6.07;2.17;;;;;;;;;;5052033;28;20021;-70
2022/02/08 03:37:15;;;;;;;6.35;1.77;;;;;;;;;;5069175;28;20028;-72
2022/02/08 03:39:43;;;;;;;6.35;2.05;;;;;;;;;;5052304;28;20021;-71
2022/02/08 03:42:20;;;;;;;4.60;1.95;;;;;;;;;;5068694;28;20116;-71
2022/02/08 03:44:49;;;;;;;6.22;2.28;;;;;;;;;;5052133;28;20067;-70
2022/02/08 03:47:17;;;;;;;6.55;2.15;;;;;;;;;;5051916;28;20024;-71
2022/02/08 03:49:43;;;;;;;6.13;1.65;;;;;;;;;;5068380;28;20025;-70
2022/02/08 03:52:09;;;;;;;3.85;2.10;;;;;;;;;;5051872;28;20100;-71
2022/02/08 03:54:39;;;;;;;4.45;1.88;;;;;;;;;;5068817;28;20043;-71
2022/02/08 03:57:08;;;;;;;4.55;2.00;;;;;;;;;;5068522;28;20112;-70
2022/02/08 03:59:35;;;;;;;3.80;2.08;;;;;;;;;;5068444;28;20510;-71
2022/02/08 04:04:32;;;;;;;5.57;1.85;;;;;;;;;;5053632;28;20502;-71
2022/02/08 04:07:01;;;;;;;6.35;2.00;;;;;;;;;;5053156;28;20037;-71
2022/02/08 04:09:27;;;;;;;4.53;2.20;;;;;;;;;;5053156;28;20543;-71
2022/02/08 04:11:58;;;;;;;7.15;2.08;;;;;;;;;;5052999;28;20190;-70
2022/02/08 04:14:37;;;;;;;7.22;2.17;;;;;;;;;;5052754;28;20033;-70
2022/02/08 04:33:43;;;;;;;7.10;2.35;;;;;;;;;;5056734;28;20056;-70
2022/02/08 04:41:25;;;;;;;8.40;2.53;;;;;;;;;;5056925;28;20467;-71
2022/02/08 04:51:43;;;;;;;6.07;1.95;;;;;;;;;;5055547;28;20049;-72
2022/02/08 04:59:19;;;;;;;5.68;1.92;;;;;;;;;;5056117;28;20091;-72
2022/02/08 05:28:09;;;;;;;7.47;2.00;;;;;;;;;;5055828;28;20483;-70
2022/02/08 05:45:14;;;;;;;9.93;2.58;;;;;;;;;;5055126;28;20025;-70
2022/02/08 05:47:42;;;;;;;7.43;2.75;;;;;;;;;;5055200;28;20036;-70
2022/02/08 05:50:38;;;;;;;5.45;2.05;;;;;;;;;;5055294;28;20024;-72
2022/02/08 05:53:07;;;;;;;6.10;2.47;;;;;;;;;;5055174;28;20045;-71
2022/02/08 05:55:34;;;;;;;6.90;2.10;;;;;;;;;;5054862;28;20155;-70
2022/02/08 05:58:00;;;;;;;7.28;2.22;;;;;;;;;;5054858;28;20017;-71
2022/02/08 06:00:28;;;;;;;6.65;2.40;;;;;;;;;;5053659;28;20036;-71
2022/02/08 06:03:06;;;;;;;7.07;1.85;;;;;;;;;;5053588;28;20466;-70
2022/02/08 06:05:44;;;;;;;5.15;2.03;;;;;;;;;;5070241;28;20120;-70
2022/02/08 06:08:09;;;;;;;4.47;2.10;;;;;;;;;;5054571;28;20115;-71
2022/02/08 06:10:43;;;;;;;6.28;2.13;;;;;;;;;;5054541;28;20024;-72
2022/02/08 06:13:09;;;;;;;6.25;2.30;;;;;;;;;;5054754;28;20033;-71
2022/02/08 06:15:38;;;;;;;5.80;2.03;;;;;;;;;;5069392;28;20079;-71
2022/02/08 06:18:04;;;;;;;5.38;2.35;;;;;;;;;;5069919;28;20066;-68
2022/02/08 06:20:33;;;;;;;5.63;2.33;;;;;;;;;;5069840;28;20039;-72
2022/02/08 06:23:00;;;;;;;8.88;2.70;;;;;;;;;;5052963;28;20483;-72
2022/02/08 06:25:25;;;;;;;6.38;2.35;;;;;;;;;;5069643;28;20033;-72
2022/02/08 06:27:51;;;;;;;3.95;2.00;;;;;;;;;;5054263;28;20027;-72
2022/02/08 06:30:18;;;;;;;5.82;2.45;;;;;;;;;;5054227;28;20434;-72
2022/02/08 06:32:44;;;;;;;7.40;2.85;;;;;;;;;;5054283;28;20044;-72
2022/02/08 06:35:16;;;;;;;8.52;2.55;;;;;;;;;;5054171;28;20054;-72
2022/02/08 06:37:41;;;;;;;9.80;2.30;;;;;;;;;;5069494;28;20029;-74
2022/02/08 06:40:08;;;;;;;7.50;2.40;;;;;;;;;;5054029;28;20036;-72
2022/02/08 06:42:33;;;;;;;5.93;2.03;;;;;;;;;;5052528;28;20071;-72
2022/02/08 06:45:00;;;;;;;9.20;2.63;;;;;;;;;;5052581;28;20451;-72
2022/02/08 06:47:26;;;;;;;7.85;2.78;;;;;;;;;;5053431;28;20033;-72
2022/02/08 06:49:53;;;;;;;8.77;2.65;;;;;;;;;;5052549;28;20071;-72
2022/02/08 06:52:18;;;;;;;5.85;2.55;;;;;;;;;;5053762;28;20033;-72
2022/02/08 06:54:43;;;;;;;5.70;2.33;;;;;;;;;;5052509;28;20028;-72
2022/02/08 06:57:09;;;;;;;5.97;2.28;;;;;;;;;;5053466;28;20463;-72
2022/02/08 06:59:38;;;;;;;7.45;2.38;;;;;;;;;;5053641;28;20063;-72
2022/02/08 07:02:04;;;;;;;5.72;2.25;;;;;;;;;;5052390;28;20029;-72
2022/02/08 07:04:30;;;;;;;5.80;2.50;;;;;;;;;;5053512;28;20025;-72
2022/02/08 07:06:56;;;;;;;7.22;2.30;;;;;;;;;;5053492;28;20021;-73
2022/02/08 07:09:21;;;;;;;8.95;2.13;;;;;;;;;;5068925;28;20033;-73
2022/02/08 07:11:48;;;;;;;7.55;2.05;;;;;;;;;;5052337;28;20527;-72
2022/02/08 07:14:14;;;;;;;5.70;2.08;;;;;;;;;;5053573;28;20055;-70
2022/02/08 07:16:46;;;;;;;4.60;2.03;;;;;;;;;;5053154;28;20474;-71
2022/02/08 07:19:12;;;;;;;7.07;2.33;;;;;;;;;;5053870;28;20115;-71
2022/02/08 07:21:38;;;;;;;7.25;2.47;;;;;;;;;;5068953;28;20021;-71
2022/02/08 07:24:04;;;;;;;10.65;2.55;;;;;;;;;;5053438;28;20067;-71
2022/02/08 07:26:30;;;;;;;7.22;2.42;;;;;;;;;;5053371;28;20455;-71
2022/02/08 07:28:55;;;;;;;7.50;2.45;;;;;;;;;;5053523;28;20463;-71
2022/02/08 07:31:23;;;;;;;6.93;2.05;;;;;;;;;;5053361;28;20074;-71
2022/02/08 07:34:40;;;;;;;5.68;2.03;;;;;;;;;;5052148;28;20028;-71
2022/02/08 07:42:05;;;;;;;5.13;2.10;;;;;;;;;;5053112;28;20027;-71
2022/02/08 07:44:31;;;;;;;5.18;2.30;;;;;;;;;;5052919;28;20036;-71
2022/02/08 07:47:05;;;;;;;8.63;2.35;;;;;;;;;;5068267;28;20458;-71
2022/02/08 07:49:32;;;;;;;7.68;2.58;;;;;;;;;;5053015;28;20112;-71
2022/02/08 07:51:58;;;;;;;7.20;2.65;;;;;;;;;;5053171;28;20021;-71
2022/02/08 07:54:23;;;;;;;4.85;2.42;;;;;;;;;;5052936;28;20039;-71
2022/02/08 07:56:49;;;;;;;6.63;2.67;;;;;;;;;;5056897;28;20056;-71
2022/02/08 07:59:15;;;;;;;7.97;2.88;;;;;;;;;;5057000;28;20394;-71
2022/02/08 08:01:40;;;;;;;6.78;2.85;;;;;;;;;;5056850;28;20387;-71
2022/02/08 08:04:06;;;;;;;13.05;3.55;;;;;;;;;;5072367;28;20112;-71
2022/02/08 08:06:32;;;;;;;9.43;4.30;;;;;;;;;;5055878;28;20021;-71
2022/02/08 08:08:58;;;;;;;10.80;3.85;;;;;;;;;;5072298;28;20039;-71
2022/02/08 08:11:23;;;;;;;12.25;3.67;;;;;;;;;;5056894;28;20394;-71
2022/02/08 08:14:12;;;;;;;9.15;3.63;;;;;;;;;;5055548;28;20072;-71
2022/02/08 08:21:27;;;;;;;8.20;3.83;;;;;;;;;;5056749;28;20092;-71
2022/02/08 08:23:53;;;;;;;7.25;3.55;;;;;;;;;;5056694;28;20025;-71
2022/02/08 08:26:20;;;;;;;6.75;2.83;;;;;;;;;;5056547;28;20479;-71
2022/02/08 08:28:46;;;;;;;8.50;3.45;;;;;;;;;;5055184;28;20475;-71
2022/02/08 08:31:13;;;;;;;9.82;2.92;;;;;;;;;;5071862;28;20123;-71
2022/02/08 08:33:38;;;;;;;10.80;4.03;;;;;;;;;;5056350;28;20025;-71
2022/02/08 08:36:05;;;;;;;8.77;3.15;;;;;;;;;;5055194;28;20035;-71
2022/02/08 08:38:32;;;;;;;7.90;3.47;;;;;;;;;;5056377;28;20059;-71
2022/02/08 08:51:45;;;;;;;7.47;2.92;;;;;;;;;;5053465;28;20376;-71
2022/02/08 08:54:11;;;;;;;6.32;2.90;;;;;;;;;;5054999;28;20467;-71
2022/02/08 08:56:37;;;;;;;7.50;2.92;;;;;;;;;;5056033;28;20051;-71
2022/02/08 08:59:03;;;;;;;7.45;2.95;;;;;;;;;;5056078;28;20078;-71
2022/02/08 09:01:29;;;;;;;5.43;2.40;;;;;;;;;;5054659;28;20021;-71
2022/02/08 09:03:54;;;;;;;6.97;2.30;;;;;;;;;;5071384;28;20174;-71
2022/02/08 09:06:19;;;;;;;6.63;2.05;;;;;;;;;;5055835;28;20029;-71
2022/02/08 09:08:45;;;;;;;8.10;2.67;;;;;;;;;;5055684;28;20032;-71
2022/02/08 09:11:18;;;;;;;3.55;2.03;;;;;;;;;;5055664;28;20111;-71
2022/02/08 09:19:29;;;;;;;7.78;3.45;;;;;;;;;;5055616;28;20029;-71
2022/02/08 09:24:54;;;;;;;9.23;3.33;;;;;;;;;;5055664;28;20040;-70
2022/02/08 09:30:09;;;;;;;8.20;3.78;;;;;;;;;;5054288;28;20033;-70
2022/02/08 09:32:51;;;;;;;9.87;3.70;;;;;;;;;;5053873;28;20025;-71
2022/02/08 09:35:17;;;;;;;10.18;3.90;;;;;;;;;;5054095;28;20704;-71
2022/02/08 09:37:43;;;;;;;7.07;2.80;;;;;;;;;;5054093;28;20146;-70
2022/02/08 09:40:10;;;;;;;7.32;3.08;;;;;;;;;;5054018;28;20033;-70
2022/02/08 09:42:40;;;;;;;7.95;2.90;;;;;;;;;;5055354;28;20017;-70
2022/02/08 09:45:09;;;;;;;6.28;2.78;;;;;;;;;;5055115;28;20139;-70
2022/02/08 09:47:46;;;;;;;7.13;2.40;;;;;;;;;;5053849;28;20492;-70
2022/02/08 09:50:20;;;;;;;7.38;3.70;;;;;;;;;;5055141;28;20479;-71
2022/02/08 09:52:50;;;;;;;7.15;2.50;;;;;;;;;;5055049;28;20039;-70
2022/02/08 09:55:16;;;;;;;6.68;2.63;;;;;;;;;;5054947;28;20036;-70
2022/02/08 09:57:41;;;;;;;7.60;3.13;;;;;;;;;;5054893;28;20027;-70
2022/02/08 10:00:07;;;;;;;7.65;3.13;;;;;;;;;;5054857;28;20049;-70
2022/02/08 10:02:37;;;;;;;5.53;2.67;;;;;;;;;;5054770;28;20388;-70
2022/02/08 10:05:04;;;;;;;7.35;3.17;;;;;;;;;;5053458;28;20029;-71
2022/02/08 10:07:35;;;;;;;5.05;1.98;;;;;;;;;;5054727;28;20013;-70
2022/02/08 10:10:08;;;;;;;8.32;3.13;;;;;;;;;;5053654;28;20029;-71
2022/02/08 10:12:47;;;;;;;5.50;2.58;;;;;;;;;;5053490;28;20040;-71
2022/02/08 10:23:24;;;;;;;7.10;2.92;;;;;;;;;;5053182;28;20044;-71
2022/02/08 10:26:00;;;;;;;7.97;3.80;;;;;;;;;;5054051;28;20018;-70
2022/02/08 10:28:32;;;;;;;6.35;2.92;;;;;;;;;;5053143;28;20029;-70
2022/02/08 10:31:28;;;;;;;9.05;3.20;;;;;;;;;;5052985;28;20112;-71
2022/02/08 10:39:19;;;;;;;9.05;3.30;;;;;;;;;;5054362;28;20162;-70
2022/02/08 10:41:48;;;;;;;9.27;3.53;;;;;;;;;;5053992;28;20032;-70
2022/02/08 10:44:13;;;;;;;6.70;3.42;;;;;;;;;;5054049;28;20013;-70
2022/02/08 10:46:38;;;;;;;6.85;2.90;;;;;;;;;;5052530;28;20051;-70
2022/02/08 10:49:10;;;;;;;5.85;3.17;;;;;;;;;;5052631;28;20027;-70
2022/02/08 10:51:45;;;;;;;7.13;3.20;;;;;;;;;;5052707;28;20035;-70
2022/02/08 10:54:32;;;;;;;9.75;3.03;;;;;;;;;;5052818;28;20119;-70
2022/02/08 10:57:06;;;;;;;7.45;3.83;;;;;;;;;;5053906;28;20029;-71
2022/02/08 10:59:37;;;;;;;12.10;5.10;;;;;;;;;;5052587;28;20032;-70
2022/02/08 11:02:14;;;;;;;11.75;4.75;;;;;;;;;;5052460;28;20068;-70
2022/02/08 11:04:48;;;;;;;8.63;4.80;;;;;;;;;;5052436;28;20024;-70
2022/02/08 11:07:25;;;;;;;12.70;3.75;;;;;;;;;;5052481;28;20029;-71
2022/02/08 11:10:03;;;;;;;6.85;3.85;;;;;;;;;;5052444;28;20037;-70
2022/02/08 11:12:55;;;;;;;10.25;5.03;;;;;;;;;;5053659;28;20072;-70
2022/02/08 11:15:28;;;;;;;7.07;3.42;;;;;;;;;;5053330;28;20079;-71
2022/02/08 11:20:34;;;;;;;13.13;5.78;;;;;;;;;;5052253;28;20033;-70
2022/02/08 11:23:10;;;;;;;11.90;5.13;;;;;;;;;;5053491;28;20043;-70
2022/02/08 11:25:40;;;;;;;10.50;4.95;;;;;;;;;;5050556;28;20036;-70
2022/02/08 11:28:16;;;;;;;11.20;4.85;;;;;;;;;;5053294;28;20037;-71
2022/02/08 11:30:57;;;;;;;10.52;4.50;;;;;;;;;;5051400;28;20028;-70
2022/02/08 11:44:51;;;;;;;10.70;3.65;;;;;;;;;;5051856;28;20033;-70
2022/02/08 11:47:38;;;;;;;7.43;3.00;;;;;;;;;;5068533;28;20116;-71
2022/02/08 11:50:22;;;;;;;7.53;3.60;;;;;;;;;;5052083;28;20107;-70
2022/02/08 11:53:09;;;;;;;3.58;2.10;;;;;;;;;;5052066;28;20479;-70
2022/02/08 11:55:50;;;;;;;4.07;2.22;;;;;;;;;;5052921;28;20045;-70
2022/02/08 11:58:30;;;;;;;8.02;3.30;;;;;;;;;;5053055;28;20025;-70
2022/02/08 12:01:05;;;;;;;8.30;3.47;;;;;;;;;;5051774;28;20040;-71
2022/02/08 12:08:54;;;;;;;;;;;;;;;;;;5053528;28;20110;-70
2022/02/08 12:11:42;;;;;;;5.87;3.17;;;;;;;;;;5051828;28;19909;-71
2022/02/08 12:35:33;;;;;;;8.30;3.05;;;;;;;;;;5052611;28;20025;-74
2022/02/08 13:02:16;;;;;;;6.05;2.97;;;;;;;;;;5054678;28;20029;-74
2022/02/08 14:01:30;;;;;;;2.70;2.20;;;;;;;;;;5053619;28;19909;-74
2022/02/08 14:07:38;;;;;;;4.22;2.25;;;;;;;;;;5055092;28;20013;-74
2022/02/08 14:13:32;;;;;;;6.38;3.05;;;;;;;;;;5053727;28;20145;-74
2022/02/08 14:18:35;;;;;;;9.35;4.20;;;;;;;;;;5053573;28;20104;-67
2022/02/08 14:23:51;;;;;;;6.05;3.25;;;;;;;;;;5055093;28;20036;-71
2022/02/08 15:07:57;;;;;;;9.40;4.43;;;;;;;;;;5054206;28;20426;-72
2022/02/08 15:09:52;;;;;;;9.02;4.07;;;;;;;;;;5048446;28;20051;-72
2022/02/08 15:12:20;;;;;;;7.32;4.00;;;;;;;;;;5053657;28;20043;-71
2022/02/08 15:17:11;;;;;;;10.88;5.32;;;;;;;;;;5053184;28;20864;-72
2022/02/08 15:19:38;;;;;;;6.05;4.35;;;;;;;;;;5053428;28;20414;-71
2022/02/08 15:22:05;;;;;;;11.93;5.05;;;;;;;;;;5051989;28;20534;-71
2022/02/08 15:24:30;;;;;;;10.05;5.22;;;;;;;;;;5053193;28;20017;-71
2022/02/08 15:26:56;;;;;;;12.35;5.88;;;;;;;;;;5053263;28;20405;-71
2022/02/08 15:29:24;;;;;;;9.07;4.65;;;;;;;;;;5053258;28;20021;-71
2022/02/08 15:31:50;;;;;;;11.77;5.68;;;;;;;;;;5052008;28;20376;-71
2022/02/08 15:34:16;;;;;;;11.57;4.95;;;;;;;;;;5053335;28;20074;-71
2022/02/08 15:36:41;;;;;;;7.85;4.18;;;;;;;;;;5053182;28;20029;-71
2022/02/08 15:39:08;;;;;;;8.93;4.75;;;;;;;;;;5053225;28;20486;-71
2022/02/08 15:41:37;;;;;;;10.63;5.55;;;;;;;;;;5053080;28;20029;-71
2022/02/08 15:44:03;;;;;;;9.55;5.50;;;;;;;;;;5051952;28;20017;-71
2022/02/08 15:46:30;;;;;;;10.60;5.45;;;;;;;;;;5052896;28;20029;-71
2022/02/08 15:48:56;;;;;;;12.02;5.85;;;;;;;;;;5052964;28;20068;-71
2022/02/08 15:51:36;;;;;;;15.15;6.15;;;;;;;;;;5052859;28;20076;-71
2022/02/08 15:54:12;;;;;;;5.22;3.70;;;;;;;;;;5053203;28;20086;-71
2022/02/08 16:07:06;;;;;;;12.18;5.97;;;;;;;;;;5052937;28;20039;-71
2022/02/08 16:09:56;;;;;;;9.65;5.72;;;;;;;;;;5052871;28;20037;-72
2022/02/08 16:55:14;;;;;;;29.88;13.15;;;;;;;;;;5049779;28;20044;-72
2022/02/08 16:57:56;;;;;;;36.42;15.98;;;;;;;;;;5051927;28;20033;-72
2022/02/08 17:00:24;;;;;;;16.45;9.18;;;;;;;;;;5051907;28;20083;-72
2022/02/08 17:02:56;;;;;;;19.80;9.60;;;;;;;;;;5050167;28;20040;-72
2022/02/08 17:05:21;;;;;;;26.70;13.02;;;;;;;;;;5051380;28;20047;-72
2022/02/08 17:07:47;;;;;;;26.02;11.88;;;;;;;;;;5066769;28;20487;-72
2022/02/08 17:10:28;;;;;;;14.93;7.88;;;;;;;;;;5050015;28;20425;-72
2022/02/08 17:13:07;;;;;;;20.65;10.68;;;;;;;;;;5051348;28;20033;-72
2022/02/08 17:44:56;;;;;;;13.52;7.30;;;;;;;;;;5051279;28;20040;-71
2022/02/08 17:46:06;;;;;;;12.07;7.93;;;;;;;;;;5050726;28;20475;-71
2022/02/08 17:48:35;;;;;;;11.95;6.80;;;;;;;;;;5049839;28;20120;-71
2022/02/08 17:51:02;;;;;;;12.55;7.60;;;;;;;;;;5050604;28;20071;-71
2022/02/08 17:53:27;;;;;;;11.82;6.68;;;;;;;;;;5049461;28;20064;-71
2022/02/08 17:55:54;;;;;;;15.23;8.63;;;;;;;;;;5050172;28;20110;-71
2022/02/08 17:58:20;;;;;;;11.48;8.25;;;;;;;;;;5065916;28;20036;-71
2022/02/08 18:00:45;;;;;;;7.72;6.00;;;;;;;;;;5050303;28;20021;-71
2022/02/08 18:03:12;;;;;;;13.27;7.93;;;;;;;;;;5050254;28;20380;-71
2022/02/08 18:05:38;;;;;;;11.30;6.75;;;;;;;;;;5050345;28;20120;-71
2022/02/08 18:08:06;;;;;;;12.18;6.50;;;;;;;;;;5065533;28;20124;-71
2022/02/08 18:10:32;;;;;;;12.85;7.60;;;;;;;;;;5050423;28;20039;-71
2022/02/08 18:12:58;;;;;;;13.30;7.68;;;;;;;;;;5050360;28;20029;-72
2022/02/08 18:15:25;;;;;;;14.70;9.88;;;;;;;;;;5049405;28;20087;-72
2022/02/08 18:17:55;;;;;;;15.48;9.35;;;;;;;;;;5050581;28;20072;-72
2022/02/08 19:09:18;;;;;;;9.02;5.63;;;;;;;;;;5049312;28;20478;-72
2022/02/08 19:11:44;;;;;;;13.30;7.35;;;;;;;;;;5045800;28;20055;-71
2022/02/08 19:20:27;;;;;;;5.93;4.50;;;;;;;;;;5048845;28;20053;-72
2022/02/08 19:22:18;;;;;;;7.72;5.93;;;;;;;;;;5038489;28;20132;-72
2022/02/08 19:24:44;;;;;;;9.18;6.35;;;;;;;;;;5048849;28;20494;-72
2022/02/08 19:27:10;;;;;;;8.88;5.68;;;;;;;;;;5048898;28;20437;-72
2022/02/08 19:29:36;;;;;;;7.18;5.72;;;;;;;;;;5047335;28;20051;-72
2022/02/08 19:32:08;;;;;;;8.30;5.90;;;;;;;;;;5063670;28;20025;-72
2022/02/08 19:34:34;;;;;;;8.32;6.20;;;;;;;;;;5052967;28;20036;-72
2022/02/08 19:37:05;;;;;;;8.77;6.47;;;;;;;;;;5053029;28;20402;-72
2022/02/08 19:39:30;;;;;;;7.70;5.53;;;;;;;;;;5053239;28;20029;-72
2022/02/08 19:41:57;;;;;;;9.25;6.45;;;;;;;;;;5053187;28;20024;-72
2022/02/08 19:44:22;;;;;;;7.15;5.25;;;;;;;;;;5053037;28;20064;-72
2022/02/08 19:46:48;;;;;;;7.60;6.28;;;;;;;;;;5052997;28;20053;-72
2022/02/08 19:49:13;;;;;;;6.80;5.32;;;;;;;;;;5052980;28;20108;-72
2022/02/08 19:51:39;;;;;;;8.07;6.18;;;;;;;;;;5067636;28;20041;-72
2022/02/08 19:54:07;;;;;;;6.95;5.55;;;;;;;;;;5052914;28;20067;-72
2022/02/08 19:56:42;;;;;;;8.63;6.38;;;;;;;;;;5068339;28;20029;-72
2022/02/08 19:59:11;;;;;;;8.48;6.75;;;;;;;;;;5052975;28;20079;-71
2022/02/08 20:01:38;;;;;;;7.68;5.53;;;;;;;;;;5053047;28;20074;-71
2022/02/08 20:04:07;;;;;;;7.28;5.88;;;;;;;;;;5052732;28;20063;-68
2022/02/08 20:06:34;;;;;;;7.82;6.18;;;;;;;;;;5053188;28;20467;-68
2022/02/08 20:09:02;;;;;;;9.15;6.57;;;;;;;;;;5053223;28;20029;-68
2022/02/08 20:11:28;;;;;;;7.75;5.15;;;;;;;;;;5052960;28;20025;-68
2022/02/08 20:13:57;;;;;;;8.63;5.95;;;;;;;;;;5053051;28;20025;-68
2022/02/08 20:16:27;;;;;;;6.75;5.45;;;;;;;;;;5052497;28;20041;-68
2022/02/08 20:18:56;;;;;;;7.35;5.38;;;;;;;;;;5053340;28;20055;-68
2022/02/08 20:21:23;;;;;;;6.05;5.13;;;;;;;;;;5052826;28;20053;-68
2022/02/08 20:23:49;;;;;;;7.45;5.90;;;;;;;;;;5052625;28;20027;-68
2022/02/08 20:26:14;;;;;;;9.65;5.90;;;;;;;;;;5052703;28;20116;-68
2022/02/08 20:28:55;;;;;;;6.95;5.53;;;;;;;;;;5052427;28;20029;-69
2022/02/08 20:31:21;;;;;;;6.20;5.60;;;;;;;;;;5052983;28;20055;-68
2022/02/08 20:33:47;;;;;;;6.97;5.18;;;;;;;;;;5068295;28;20116;-68
2022/02/08 20:36:13;;;;;;;6.07;4.45;;;;;;;;;;5051235;28;20028;-68
2022/02/08 20:38:38;;;;;;;6.57;4.82;;;;;;;;;;5052950;28;20052;-68
2022/02/08 20:41:04;;;;;;;5.60;5.05;;;;;;;;;;5052636;28;20415;-69
2022/02/08 20:43:35;;;;;;;6.95;4.50;;;;;;;;;;5052580;28;20463;-69
2022/02/08 20:46:03;;;;;;;6.18;5.10;;;;;;;;;;5057459;28;20029;-69
2022/02/08 20:48:29;;;;;;;5.45;4.13;;;;;;;;;;5068183;28;20028;-69
2022/02/08 20:50:59;;;;;;;5.90;4.38;;;;;;;;;;5062354;28;20037;-69
2022/02/08 20:57:01;;;;;;;4.60;3.72;;;;;;;;;;5062976;28;20032;-69
2022/02/08 21:01:25;;;;;;;4.82;3.60;;;;;;;;;;5062924;28;20048;-69
2022/02/08 21:06:26;;;;;;;4.03;3.42;;;;;;;;;;5076363;28;20131;-69
2022/02/08 21:08:52;;;;;;;3.55;3.22;;;;;;;;;;5076587;28;20020;-69
2022/02/08 21:11:20;;;;;;;4.55;3.08;;;;;;;;;;5076145;28;20030;-69
2022/02/08 21:14:04;;;;;;;3.63;3.08;;;;;;;;;;5076162;28;20493;-69
2022/02/08 21:16:31;;;;;;;3.15;2.67;;;;;;;;;;5090996;28;20123;-69
2022/02/08 21:18:57;;;;;;;3.20;2.90;;;;;;;;;;5069121;28;20085;-69
2022/02/08 21:21:23;;;;;;;3.10;2.50;;;;;;;;;;5060563;28;20025;-69
2022/02/08 21:23:51;;;;;;;3.15;2.85;;;;;;;;;;5061826;28;20017;-69
2022/02/08 21:26:22;;;;;;;2.83;2.55;;;;;;;;;;5064557;28;20477;-69
2022/02/08 21:50:12;;;;;;;3.53;2.40;;;;;;;;;;5059815;28;20529;-66
2022/02/08 21:52:45;;;;;;;3.75;2.50;;;;;;;;;;5059634;28;20375;-65
2022/02/08 21:55:13;;;;;;;2.40;2.20;;;;;;;;;;5061923;28;20150;-65
2022/02/08 21:57:47;;;;;;;4.25;2.58;;;;;;;;;;5059222;28;20020;-66
2022/02/08 22:00:13;;;;;;;2.95;2.40;;;;;;;;;;5064528;28;20044;-67
2022/02/08 22:02:40;;;;;;;4.00;2.85;;;;;;;;;;5063719;28;20025;-66
2022/02/08 22:05:06;;;;;;;2.88;2.10;;;;;;;;;;5064220;28;20035;-66
2022/02/08 22:07:32;;;;;;;3.55;2.42;;;;;;;;;;5058568;28;20020;-67
2022/02/08 22:10:09;;;;;;;2.90;2.40;;;;;;;;;;5060740;28;20482;-66
2022/02/08 22:15:49;;;;;;;2.63;2.42;;;;;;;;;;5060392;28;20053;-68
2022/02/08 22:23:30;;;;;;;3.90;2.78;;;;;;;;;;5060095;28;20012;-67
2022/02/08 22:26:11;;;;;;;3.80;2.92;;;;;;;;;;5060558;28;20551;-66
2022/02/08 22:31:16;;;;;;;2.35;2.13;;;;;;;;;;5059856;28;20594;-66
2022/02/08 22:33:49;;;;;;;2.53;2.33;;;;;;;;;;5057259;28;20119;-67
2022/02/08 22:36:22;;;;;;;2.45;2.25;;;;;;;;;;5057024;28;20037;-67
2022/02/08 22:39:07;;;;;;;3.00;2.58;;;;;;;;;;5060059;28;20036;-67
2022/02/08 22:41:44;;;;;;;3.42;2.65;;;;;;;;;;5057887;28;20467;-67
2022/02/08 22:46:57;;;;;;;2.53;2.33;;;;;;;;;;5059041;28;20191;-67
2022/02/08 22:49:24;;;;;;;3.55;2.30;;;;;;;;;;5056970;28;20068;-68
2022/02/08 22:51:50;;;;;;;2.80;2.55;;;;;;;;;;5072907;28;20024;-67
2022/02/08 22:54:16;;;;;;;3.17;2.72;;;;;;;;;;5058650;28;20143;-68
2022/02/08 22:56:43;;;;;;;4.10;2.20;;;;;;;;;;5054767;28;20120;-68
2022/02/08 22:59:09;;;;;;;2.50;2.30;;;;;;;;;;5058080;28;20032;-69
2022/02/08 23:01:35;;;;;;;2.72;2.35;;;;;;;;;;5060929;28;20028;-68
2022/02/08 23:04:01;;;;;;;2.67;2.47;;;;;;;;;;5058252;28;20040;-69
2022/02/08 23:06:26;;;;;;;1.90;1.77;;;;;;;;;;5055620;28;20032;-69
2022/02/08 23:08:52;;;;;;;2.67;2.47;;;;;;;;;;5056237;28;20097;-68
2022/02/08 23:13:54;;;;;;;2.80;2.55;;;;;;;;;;5059159;28;20098;-68
2022/02/08 23:38:14;;;;;;;2.13;1.92;;;;;;;;;;5053967;28;20356;-69
2022/02/08 23:40:40;;;;;;;1.73;1.63;;;;;;;;;;5059640;28;20020;-68
2022/02/08 23:43:05;;;;;;;2.65;2.40;;;;;;;;;;5057464;28;20072;-68